Time;durP1;ratioP1;P1;durP2;ratioP2;P2;SDS_P1;SDS_P2;PMS_P1;PMS_P2;Temp;Humidity;BMP_temperature;BMP_pressure;BME280_temperature;BME280_humidity;BME280_pressure;Samples;Min_cycle;Max_cycle;Signal;HPM_P1;HPM_P2
2023/09/12 00:01:40;;;;;;;6.50;5.18;;;25.80;75.70;;;;;;5023739;28;20532;-78
2023/09/12 00:04:06;;;;;;;14.90;5.80;;;25.80;75.80;;;;;;5021014;28;20441;-82
2023/09/12 00:06:32;;;;;;;7.15;5.32;;;25.80;76.30;;;;;;5020637;28;20061;-79
2023/09/12 00:08:57;;;;;;;8.23;5.30;;;25.80;75.70;;;;;;5025391;28;20088;-81
2023/09/12 00:11:25;;;;;;;6.63;5.82;;;25.70;75.70;;;;;;5015886;28;20076;-82
2023/09/12 00:13:51;;;;;;;7.03;5.35;;;25.70;75.80;;;;;;5032055;28;20051;-82
2023/09/12 00:16:17;;;;;;;8.10;5.85;;;25.70;75.80;;;;;;5027466;28;20045;-80
2023/09/12 00:18:43;;;;;;;8.90;5.85;;;25.70;75.90;;;;;;5031012;28;20040;-80
2023/09/12 00:21:09;;;;;;;7.97;6.07;;;25.70;76.00;;;;;;5016704;28;20568;-79
2023/09/12 00:23:35;;;;;;;10.95;5.68;;;25.70;76.10;;;;;;5031494;28;20037;-78
2023/09/12 00:26:00;;;;;;;8.27;5.53;;;25.70;76.10;;;;;;5028191;28;20496;-80
2023/09/12 00:28:26;;;;;;;6.93;5.53;;;25.70;76.20;;;;;;5026481;28;20034;-81
2023/09/12 00:30:52;;;;;;;7.07;6.10;;;25.60;76.00;;;;;;5018027;28;20046;-81
2023/09/12 00:33:18;;;;;;;7.35;5.50;;;25.60;76.10;;;;;;5025797;28;20076;-81
2023/09/12 00:35:44;;;;;;;8.68;5.47;;;25.60;76.20;;;;;;5035812;28;20037;-78
2023/09/12 00:38:10;;;;;;;10.52;5.93;;;25.60;76.20;;;;;;5036520;28;20094;-78
2023/09/12 00:40:37;;;;;;;6.13;5.53;;;25.60;76.20;;;;;;5027736;28;20045;-78
2023/09/12 00:43:03;;;;;;;6.78;5.32;;;25.50;76.20;;;;;;5032041;28;20022;-79
2023/09/12 00:45:29;;;;;;;6.18;5.05;;;25.50;76.30;;;;;;5035931;28;20429;-78
2023/09/12 00:47:56;;;;;;;6.75;5.70;;;25.50;76.30;;;;;;5027164;28;20041;-79
2023/09/12 00:50:23;;;;;;;8.98;5.85;;;25.50;76.30;;;;;;5029287;28;20116;-79
2023/09/12 00:52:49;;;;;;;6.65;5.95;;;25.50;76.60;;;;;;5035807;28;20124;-79
2023/09/12 00:55:16;;;;;;;9.55;6.25;;;25.50;76.40;;;;;;5033628;28;20592;-79
2023/09/12 00:57:42;;;;;;;8.63;5.63;;;25.50;76.50;;;;;;5025224;28;20120;-79
2023/09/12 01:00:12;;;;;;;8.20;5.78;;;25.40;76.70;;;;;;5028480;28;20091;-79
2023/09/12 01:02:39;;;;;;;9.25;5.88;;;25.40;76.80;;;;;;5025956;28;20574;-79
2023/09/12 01:05:07;;;;;;;10.00;5.80;;;25.40;76.90;;;;;;5034462;28;20038;-79
2023/09/12 01:07:34;;;;;;;6.05;5.43;;;25.40;77.10;;;;;;5032417;28;20064;-78
2023/09/12 01:09:59;;;;;;;6.22;5.25;;;25.40;77.30;;;;;;5027580;28;20116;-79
2023/09/12 01:12:25;;;;;;;6.75;6.03;;;25.40;77.40;;;;;;5031161;28;20119;-79
2023/09/12 01:14:51;;;;;;;10.32;6.10;;;25.30;77.20;;;;;;5023305;28;20049;-79
2023/09/12 01:17:17;;;;;;;7.60;5.88;;;25.30;77.10;;;;;;5031351;28;20033;-79
2023/09/12 01:19:42;;;;;;;7.93;6.15;;;25.30;77.30;;;;;;5030388;28;20422;-79
2023/09/12 01:22:30;;;;;;;7.07;5.78;;;25.30;77.30;;;;;;5028048;28;20025;-79
2023/09/12 01:25:25;;;;;;;6.40;5.47;;;25.30;77.40;;;;;;5034243;28;20037;-79
2023/09/12 01:27:52;;;;;;;7.75;5.55;;;25.30;77.40;;;;;;5020901;28;20112;-79
2023/09/12 01:30:21;;;;;;;6.80;5.97;;;25.30;77.40;;;;;;5024540;28;20049;-80
2023/09/12 01:32:47;;;;;;;7.80;5.53;;;25.30;77.40;;;;;;5028460;28;20046;-82
2023/09/12 01:35:13;;;;;;;8.60;5.82;;;25.30;77.60;;;;;;5033906;28;20517;-79
2023/09/12 01:37:39;;;;;;;8.50;5.95;;;25.20;77.60;;;;;;5022530;28;20117;-79
2023/09/12 01:40:06;;;;;;;7.65;5.32;;;25.20;77.80;;;;;;5028105;28;20034;-80
2023/09/12 01:42:44;;;;;;;8.27;5.95;;;25.20;77.90;;;;;;5019862;28;20037;-80
2023/09/12 01:45:13;;;;;;;6.68;5.90;;;25.10;78.10;;;;;;5029767;28;20057;-78
2023/09/12 01:47:41;;;;;;;11.70;5.72;;;25.10;78.30;;;;;;5031939;28;20045;-77
2023/09/12 01:50:09;;;;;;;7.10;5.97;;;25.00;78.50;;;;;;5028298;28;20116;-78
2023/09/12 01:52:36;;;;;;;7.15;5.75;;;25.00;78.50;;;;;;5023987;28;20474;-78
2023/09/12 01:55:03;;;;;;;11.18;5.95;;;25.00;78.70;;;;;;5029042;28;20043;-78
2023/09/12 01:57:30;;;;;;;6.22;5.38;;;25.00;79.00;;;;;;5033046;28;20401;-79
2023/09/12 01:59:56;;;;;;;6.82;5.80;;;25.00;79.60;;;;;;5033862;28;20044;-79
2023/09/12 02:02:21;;;;;;;6.57;5.57;;;25.00;79.30;;;;;;5024795;28;20034;-79
2023/09/12 02:04:58;;;;;;;9.40;6.85;;;25.00;79.30;;;;;;5027524;28;20493;-78
2023/09/12 02:07:25;;;;;;;8.77;6.40;;;24.90;79.20;;;;;;5013983;28;20041;-79
2023/09/12 02:09:52;;;;;;;6.80;5.28;;;24.90;79.20;;;;;;5034192;28;20048;-78
2023/09/12 02:12:17;;;;;;;14.38;9.60;;;24.80;79.10;;;;;;5033692;28;20033;-79
2023/09/12 02:14:43;;;;;;;8.55;6.63;;;24.70;79.60;;;;;;5033961;28;20045;-79
2023/09/12 02:17:10;;;;;;;6.28;5.65;;;24.60;79.60;;;;;;5019098;28;20081;-79
2023/09/12 02:19:35;;;;;;;8.27;7.00;;;24.50;79.60;;;;;;5031007;28;20449;-79
2023/09/12 02:22:01;;;;;;;11.23;6.68;;;24.30;80.00;;;;;;5020144;28;20416;-79
2023/09/12 02:24:27;;;;;;;8.05;7.22;;;24.20;80.30;;;;;;5032896;28;20095;-79
2023/09/12 02:26:52;;;;;;;10.68;7.72;;;24.10;80.60;;;;;;5021419;28;20038;-78
2023/09/12 02:29:18;;;;;;;8.55;7.57;;;24.10;80.70;;;;;;5030661;28;20033;-79
2023/09/12 02:31:44;;;;;;;9.93;7.60;;;24.10;80.60;;;;;;5016105;28;20041;-79
2023/09/12 02:34:09;;;;;;;9.85;7.70;;;24.20;80.70;;;;;;5015515;28;20033;-78
2023/09/12 02:36:35;;;;;;;8.55;7.63;;;24.20;80.60;;;;;;5025252;28;20049;-78
2023/09/12 02:39:00;;;;;;;9.32;8.10;;;24.30;80.40;;;;;;5020651;28;20037;-79
2023/09/12 02:41:26;;;;;;;13.07;8.30;;;24.30;80.20;;;;;;5031604;28;20041;-79
2023/09/12 02:43:52;;;;;;;8.23;7.43;;;24.40;80.20;;;;;;5018728;28;20037;-79
2023/09/12 02:46:17;;;;;;;16.50;10.43;;;24.40;80.00;;;;;;5033278;28;20115;-79
2023/09/12 02:48:43;;;;;;;10.60;8.23;;;24.40;79.50;;;;;;5025542;28;20083;-79
2023/09/12 02:51:08;;;;;;;8.63;7.22;;;24.40;79.50;;;;;;5032953;28;20080;-79
2023/09/12 02:53:34;;;;;;;10.32;8.30;;;24.40;79.30;;;;;;5032116;28;20491;-79
2023/09/12 02:56:00;;;;;;;13.77;11.98;;;24.30;79.30;;;;;;5027938;28;20172;-80
2023/09/12 02:58:25;;;;;;;13.73;10.45;;;24.20;79.80;;;;;;5015991;28;20378;-79
2023/09/12 03:00:54;;;;;;;9.98;8.60;;;24.00;80.30;;;;;;5031765;28;20108;-80
2023/09/12 03:03:20;;;;;;;11.43;9.05;;;23.90;80.10;;;;;;5021639;28;20033;-81
2023/09/12 03:05:45;;;;;;;12.02;8.00;;;23.90;80.30;;;;;;5034176;28;20087;-80
2023/09/12 03:08:11;;;;;;;9.27;8.15;;;24.00;80.50;;;;;;5032400;28;20045;-80
2023/09/12 03:10:37;;;;;;;18.17;13.48;;;24.00;80.60;;;;;;5015019;28;20049;-80
2023/09/12 03:13:03;;;;;;;10.35;9.10;;;23.80;81.50;;;;;;5032346;28;20029;-80
2023/09/12 03:15:28;;;;;;;14.93;10.18;;;23.80;81.40;;;;;;5032017;28;20076;-79
2023/09/12 03:17:54;;;;;;;12.70;10.30;;;23.70;81.40;;;;;;5032994;28;20091;-79
2023/09/12 03:20:20;;;;;;;11.52;10.07;;;23.70;81.50;;;;;;5031988;28;20052;-79
2023/09/12 03:22:46;;;;;;;13.55;10.98;;;23.80;81.50;;;;;;5032793;28;20041;-81
2023/09/12 03:25:12;;;;;;;12.13;10.70;;;23.90;81.60;;;;;;5033168;28;20096;-83
2023/09/12 03:27:37;;;;;;;15.90;12.32;;;23.90;81.50;;;;;;5028119;28;20033;-82
2023/09/12 03:30:05;;;;;;;14.20;10.88;;;23.90;81.40;;;;;;5027126;28;20073;-83
2023/09/12 03:32:30;;;;;;;12.70;10.48;;;23.90;81.30;;;;;;5023234;28;20497;-81
2023/09/12 03:34:56;;;;;;;15.57;10.77;;;24.00;81.30;;;;;;5018680;28;20092;-81
2023/09/12 03:37:22;;;;;;;11.88;10.13;;;24.00;81.10;;;;;;5032454;28;20099;-82
2023/09/12 03:39:47;;;;;;;17.73;11.02;;;24.00;81.00;;;;;;5039862;28;20032;-83
2023/09/12 03:42:13;;;;;;;14.52;11.57;;;24.00;81.00;;;;;;5038227;28;20037;-82
2023/09/12 03:44:39;;;;;;;15.00;10.95;;;24.00;81.00;;;;;;5022483;28;20048;-82
2023/09/12 03:47:04;;;;;;;11.35;10.07;;;23.90;81.10;;;;;;5030311;28;20041;-83
2023/09/12 03:49:30;;;;;;;16.38;11.43;;;23.90;81.20;;;;;;5024926;28;20081;-80
2023/09/12 03:51:56;;;;;;;14.80;12.13;;;23.90;81.30;;;;;;5014520;28;20686;-80
2023/09/12 03:54:21;;;;;;;16.38;11.70;;;23.90;81.30;;;;;;5032854;28;20080;-80
2023/09/12 03:56:47;;;;;;;15.93;11.00;;;23.90;81.30;;;;;;5032325;28;20076;-79
2023/09/12 03:59:12;;;;;;;13.23;10.65;;;23.90;81.40;;;;;;5035260;28;20048;-80
2023/09/12 04:01:38;;;;;;;15.38;11.57;;;23.90;81.50;;;;;;5036477;28;20034;-80
2023/09/12 04:04:04;;;;;;;14.98;10.85;;;23.90;81.50;;;;;;5030414;28;20040;-80
2023/09/12 04:06:29;;;;;;;14.45;10.80;;;23.90;81.50;;;;;;5033546;28;20037;-78
2023/09/12 04:08:55;;;;;;;13.88;11.27;;;23.90;81.60;;;;;;5029907;28;20048;-78
2023/09/12 04:11:21;;;;;;;16.98;11.38;;;23.90;81.70;;;;;;5031464;28;20056;-80
2023/09/12 04:13:47;;;;;;;15.38;11.75;;;23.90;81.60;;;;;;5034609;28;20069;-81
2023/09/12 04:16:12;;;;;;;15.32;11.95;;;23.90;81.60;;;;;;5029369;28;20044;-81
2023/09/12 04:18:38;;;;;;;17.15;10.93;;;23.80;81.70;;;;;;5031101;28;20033;-81
2023/09/12 04:21:04;;;;;;;18.48;11.10;;;23.80;81.90;;;;;;5030574;28;20032;-81
2023/09/12 04:23:30;;;;;;;15.20;11.82;;;23.80;82.10;;;;;;5031602;28;20038;-79
2023/09/12 04:25:55;;;;;;;15.10;12.13;;;23.80;82.10;;;;;;5032457;28;20061;-79
2023/09/12 04:28:21;;;;;;;18.00;11.95;;;23.80;82.20;;;;;;5033145;28;20083;-76
2023/09/12 04:30:46;;;;;;;20.48;12.57;;;23.80;82.30;;;;;;5035354;28;20025;-75
2023/09/12 04:33:12;;;;;;;13.82;12.02;;;23.80;82.60;;;;;;5039465;28;20037;-77
2023/09/12 04:35:38;;;;;;;16.48;12.40;;;23.80;82.40;;;;;;5027551;28;20091;-74
2023/09/12 04:38:04;;;;;;;15.90;11.05;;;23.80;82.50;;;;;;5032206;28;20065;-75
2023/09/12 04:40:29;;;;;;;20.10;12.30;;;23.70;82.70;;;;;;5039633;28;20037;-76
2023/09/12 04:42:55;;;;;;;13.52;11.60;;;23.70;82.70;;;;;;5028711;28;20037;-75
2023/09/12 04:45:21;;;;;;;19.95;13.25;;;23.70;82.80;;;;;;5035596;28;20116;-78
2023/09/12 04:47:46;;;;;;;13.95;10.88;;;23.60;83.00;;;;;;5034878;28;20116;-79
2023/09/12 04:50:12;;;;;;;15.02;12.10;;;23.60;82.90;;;;;;5035638;28;20040;-82
2023/09/12 04:52:38;;;;;;;13.55;10.80;;;23.50;83.20;;;;;;5034892;28;20070;-78
2023/09/12 04:55:04;;;;;;;12.75;10.98;;;23.50;83.40;;;;;;5034607;28;20536;-79
2023/09/12 04:57:30;;;;;;;16.27;11.65;;;23.40;83.60;;;;;;5034792;28;20102;-78
2023/09/12 04:59:58;;;;;;;13.85;11.68;;;23.40;83.80;;;;;;5027513;28;20034;-79
2023/09/12 05:02:25;;;;;;;13.43;11.40;;;23.40;83.80;;;;;;5033598;28;20049;-79
2023/09/12 05:04:51;;;;;;;13.95;10.65;;;23.40;83.90;;;;;;5037848;28;20041;-79
2023/09/12 05:07:17;;;;;;;14.90;11.02;;;23.40;84.00;;;;;;5047350;28;20045;-79
2023/09/12 05:09:42;;;;;;;12.15;10.85;;;23.40;83.90;;;;;;5036933;28;20071;-79
2023/09/12 05:12:08;;;;;;;13.35;11.93;;;23.40;83.90;;;;;;5031606;28;20037;-79
2023/09/12 05:14:34;;;;;;;18.02;12.27;;;23.40;84.20;;;;;;5034259;28;20049;-79
2023/09/12 05:17:01;;;;;;;17.48;12.38;;;23.40;84.50;;;;;;5027094;28;20045;-79
2023/09/12 05:19:27;;;;;;;14.18;11.52;;;23.40;84.40;;;;;;5034160;28;20052;-79
2023/09/12 05:21:53;;;;;;;16.95;11.98;;;23.40;84.40;;;;;;5030819;28;20033;-77
2023/09/12 05:24:18;;;;;;;19.25;13.38;;;23.40;84.60;;;;;;5032119;28;20088;-79
2023/09/12 05:26:44;;;;;;;14.65;12.55;;;23.40;84.60;;;;;;5027012;28;20041;-78
2023/09/12 05:29:10;;;;;;;15.55;13.30;;;23.40;84.80;;;;;;5034223;28;20481;-79
2023/09/12 05:31:35;;;;;;;13.05;10.80;;;23.40;85.00;;;;;;5034109;28;20048;-84
2023/09/12 05:34:01;;;;;;;13.18;10.65;;;23.40;84.80;;;;;;5046637;28;20033;-82
2023/09/12 05:36:26;;;;;;;22.67;16.92;;;23.40;85.00;;;;;;5046042;28;20486;-81
2023/09/12 05:38:52;;;;;;;21.10;15.00;;;23.30;85.50;;;;;;5024688;28;20030;-83
2023/09/12 05:41:18;;;;;;;18.88;14.90;;;23.20;86.10;;;;;;5024741;28;20056;-76
2023/09/12 05:43:43;;;;;;;16.52;11.32;;;23.10;86.60;;;;;;5029068;28;20033;-75
2023/09/12 05:46:09;;;;;;;15.30;11.40;;;23.00;86.50;;;;;;5029365;28;20076;-75
2023/09/12 05:48:35;;;;;;;13.10;10.70;;;23.00;86.70;;;;;;5024867;28;20022;-76
2023/09/12 05:51:00;;;;;;;20.67;12.70;;;23.00;86.50;;;;;;5024977;28;20040;-77
2023/09/12 05:53:31;;;;;;;14.48;11.13;;;23.10;86.80;;;;;;5027255;28;20476;-75
2023/09/12 05:55:57;;;;;;;19.52;14.63;;;23.00;86.80;;;;;;5008870;28;20045;-75
2023/09/12 05:58:23;;;;;;;19.33;15.60;;;23.00;87.20;;;;;;5010541;28;20099;-82
2023/09/12 06:00:49;;;;;;;24.48;14.93;;;22.90;87.50;;;;;;5030616;28;20033;-82
2023/09/12 06:03:15;;;;;;;19.50;14.20;;;22.90;87.70;;;;;;5032504;28;20033;-83
2023/09/12 06:05:41;;;;;;;20.15;13.95;;;22.90;88.00;;;;;;5031217;28;20037;-83
2023/09/12 06:08:07;;;;;;;17.95;12.65;;;22.90;88.20;;;;;;5024433;28;20585;-83
2023/09/12 06:10:33;;;;;;;16.67;12.02;;;22.90;87.90;;;;;;5027804;28;20038;-83
2023/09/12 06:12:59;;;;;;;14.60;13.10;;;22.90;88.10;;;;;;5022696;28;20026;-82
2023/09/12 06:15:25;;;;;;;21.67;15.57;;;23.00;88.50;;;;;;5037335;28;20091;-83
2023/09/12 06:17:51;;;;;;;23.27;16.55;;;23.00;88.60;;;;;;5045293;28;20096;-83
2023/09/12 06:20:16;;;;;;;15.73;12.38;;;23.00;88.80;;;;;;5022487;28;20042;-83
2023/09/12 06:22:43;;;;;;;13.45;11.15;;;23.00;88.60;;;;;;5018542;28;20034;-82
2023/09/12 06:25:09;;;;;;;15.63;12.75;;;23.10;88.40;;;;;;5023830;28;20092;-83
2023/09/12 06:27:34;;;;;;;13.88;11.80;;;23.20;88.70;;;;;;5023518;28;20034;-82
2023/09/12 06:30:00;;;;;;;15.93;12.82;;;23.20;88.30;;;;;;5037734;28;20432;-85
2023/09/12 06:32:26;;;;;;;16.65;11.98;;;23.30;88.20;;;;;;5032420;28;20033;-77
2023/09/12 06:34:52;;;;;;;19.10;15.75;;;23.40;88.10;;;;;;5041782;28;20033;-74
2023/09/12 06:37:18;;;;;;;17.70;14.07;;;23.50;88.10;;;;;;5018455;28;20037;-84
2023/09/12 06:39:44;;;;;;;17.42;14.68;;;23.50;88.00;;;;;;5027775;28;20045;-83
2023/09/12 06:42:14;;;;;;;17.70;12.38;;;23.50;87.90;;;;;;5052196;28;20075;-84
2023/09/12 06:44:39;;;;;;;18.10;14.05;;;23.60;88.10;;;;;;5019652;28;20113;-78
2023/09/12 06:47:05;;;;;;;17.27;12.80;;;23.60;87.90;;;;;;5039890;28;20115;-78
2023/09/12 06:49:32;;;;;;;26.02;20.20;;;23.70;87.70;;;;;;5024674;28;20034;-78
2023/09/12 06:51:58;;;;;;;18.08;15.00;;;23.70;88.00;;;;;;5030197;28;20034;-78
2023/09/12 06:54:23;;;;;;;14.25;11.75;;;23.70;87.90;;;;;;5040471;28;20049;-78
2023/09/12 06:56:49;;;;;;;16.35;13.50;;;23.60;87.60;;;;;;5038746;28;20041;-78
2023/09/12 06:59:14;;;;;;;15.55;11.93;;;23.70;87.80;;;;;;5033044;28;20076;-79
2023/09/12 07:01:40;;;;;;;21.00;15.82;;;23.80;88.00;;;;;;5042180;28;20032;-78
2023/09/12 07:04:06;;;;;;;16.15;14.27;;;23.80;88.20;;;;;;5032791;28;20040;-78
2023/09/12 07:06:32;;;;;;;17.55;13.57;;;23.70;88.20;;;;;;5031936;28;20048;-78
2023/09/12 07:08:58;;;;;;;15.60;12.70;;;23.80;88.10;;;;;;5032474;28;20044;-79
2023/09/12 07:11:24;;;;;;;15.55;11.18;;;23.80;88.40;;;;;;5040855;28;20120;-79
2023/09/12 07:13:49;;;;;;;21.42;15.93;;;23.80;88.60;;;;;;5044769;28;20040;-83
2023/09/12 07:16:15;;;;;;;16.85;14.23;;;23.90;89.00;;;;;;5044938;28;20508;-84
2023/09/12 07:18:41;;;;;;;16.70;13.60;;;23.90;89.00;;;;;;5050004;28;20440;-84
2023/09/12 07:21:06;;;;;;;17.73;12.50;;;23.90;89.00;;;;;;5033258;28;20021;-84
2023/09/12 07:23:32;;;;;;;21.27;17.67;;;23.90;88.60;;;;;;5033685;28;20485;-84
2023/09/12 07:25:59;;;;;;;13.15;10.93;;;24.00;88.60;;;;;;5021542;28;20086;-84
2023/09/12 07:28:25;;;;;;;16.40;14.05;;;24.00;88.50;;;;;;5033539;28;20060;-84
2023/09/12 07:30:51;;;;;;;12.48;11.07;;;24.10;88.80;;;;;;5024500;28;20040;-84
2023/09/12 07:33:17;;;;;;;13.10;9.82;;;24.10;88.70;;;;;;5031408;28;20042;-84
2023/09/12 07:35:43;;;;;;;15.25;11.32;;;24.20;88.30;;;;;;5013101;28;20099;-83
2023/09/12 07:38:08;;;;;;;11.52;9.70;;;24.20;88.00;;;;;;5012408;28;20066;-82
2023/09/12 07:40:34;;;;;;;12.30;10.50;;;24.30;87.50;;;;;;5008378;28;20477;-81
2023/09/12 07:43:00;;;;;;;15.75;11.85;;;24.40;87.60;;;;;;5035559;28;20665;-82
2023/09/12 07:45:25;;;;;;;12.60;10.73;;;24.40;87.30;;;;;;5032085;28;20045;-82
2023/09/12 07:47:51;;;;;;;12.30;10.05;;;24.50;87.60;;;;;;5033360;28;20041;-82
2023/09/12 07:50:17;;;;;;;13.43;11.23;;;24.60;87.50;;;;;;5020757;28;20034;-82
2023/09/12 07:52:42;;;;;;;15.23;10.07;;;24.70;87.60;;;;;;5026597;28;20116;-81
2023/09/12 07:55:09;;;;;;;13.52;10.70;;;24.80;87.50;;;;;;5011731;28;20037;-78
2023/09/12 07:57:36;;;;;;;10.90;9.73;;;24.90;87.50;;;;;;5034396;28;20048;-78
2023/09/12 08:00:04;;;;;;;12.10;10.00;;;25.10;87.30;;;;;;5015101;28;20034;-78
2023/09/12 08:02:30;;;;;;;10.55;9.32;;;25.20;87.20;;;;;;5032202;28;20037;-78
2023/09/12 08:04:56;;;;;;;11.23;10.05;;;25.30;87.00;;;;;;5030859;28;20053;-79
2023/09/12 08:07:21;;;;;;;14.18;10.85;;;25.40;87.00;;;;;;5034874;28;20099;-79
2023/09/12 08:09:50;;;;;;;12.90;10.20;;;25.50;86.90;;;;;;5027494;28;20034;-82
2023/09/12 08:12:17;;;;;;;14.20;9.65;;;25.60;86.80;;;;;;5025564;28;20457;-82
2023/09/12 08:14:42;;;;;;;14.75;9.55;;;25.60;86.60;;;;;;5030950;28;20025;-83
2023/09/12 08:17:09;;;;;;;10.30;8.85;;;25.70;86.60;;;;;;5033553;28;20052;-82
2023/09/12 08:19:34;;;;;;;9.52;7.50;;;25.80;86.40;;;;;;5009741;28;20042;-82
2023/09/12 08:22:00;;;;;;;10.50;8.35;;;26.00;86.30;;;;;;5013594;28;20049;-83
2023/09/12 08:24:26;;;;;;;12.77;9.13;;;26.20;86.10;;;;;;5030832;28;20363;-82
2023/09/12 08:26:51;;;;;;;10.65;7.65;;;26.30;85.80;;;;;;5035022;28;20034;-82
2023/09/12 08:29:17;;;;;;;10.70;8.15;;;26.40;85.40;;;;;;5028669;28;20045;-82
2023/09/12 08:31:44;;;;;;;13.77;9.05;;;26.60;84.90;;;;;;5026328;28;20041;-82
2023/09/12 08:34:10;;;;;;;15.95;11.43;;;26.60;84.80;;;;;;5033476;28;20033;-82
2023/09/12 08:36:36;;;;;;;11.32;9.20;;;26.70;83.60;;;;;;5021265;28;20042;-82
2023/09/12 08:39:01;;;;;;;11.23;9.05;;;26.70;83.40;;;;;;5013625;28;20393;-81
2023/09/12 08:41:27;;;;;;;9.45;8.13;;;26.70;83.70;;;;;;5011756;28;20052;-82
2023/09/12 08:43:54;;;;;;;9.95;6.95;;;26.80;83.60;;;;;;5018919;28;20034;-81
2023/09/12 08:46:21;;;;;;;11.95;6.72;;;26.90;83.70;;;;;;5029099;28;20266;-81
2023/09/12 08:48:49;;;;;;;17.85;8.77;;;27.10;83.70;;;;;;5030353;28;20466;-82
2023/09/12 08:51:14;;;;;;;13.07;9.55;;;27.20;83.50;;;;;;5019299;28;20124;-81
2023/09/12 08:53:40;;;;;;;11.45;8.70;;;27.30;83.00;;;;;;5024712;28;20069;-84
2023/09/12 08:56:07;;;;;;;12.73;8.35;;;27.40;82.60;;;;;;5005275;28;20486;-84
2023/09/12 08:58:35;;;;;;;15.93;8.90;;;27.50;82.20;;;;;;5030435;28;20031;-84
2023/09/12 09:01:03;;;;;;;15.05;8.05;;;27.60;81.70;;;;;;5017837;28;20398;-84
2023/09/12 09:03:29;;;;;;;14.88;8.70;;;27.70;81.50;;;;;;5034647;28;20036;-84
2023/09/12 09:05:57;;;;;;;11.25;7.50;;;27.80;81.30;;;;;;5035372;28;20033;-84
2023/09/12 09:08:23;;;;;;;19.40;8.55;;;28.00;81.40;;;;;;5018579;28;20092;-84
2023/09/12 09:10:57;;;;;;;15.52;7.82;;;28.20;81.30;;;;;;5025341;28;20379;-84
2023/09/12 09:13:23;;;;;;;14.52;7.47;;;28.30;81.10;;;;;;5010508;28;20730;-84
2023/09/12 09:15:48;;;;;;;12.15;7.20;;;28.40;80.70;;;;;;5032322;28;20417;-85
2023/09/12 09:18:14;;;;;;;12.10;7.55;;;28.50;80.20;;;;;;5047648;28;20059;-85
2023/09/12 09:20:40;;;;;;;23.52;9.15;;;28.60;80.00;;;;;;5046353;28;20069;-81
2023/09/12 09:23:09;;;;;;;11.82;8.73;;;28.50;79.60;;;;;;5016318;28;20038;-81
2023/09/12 09:25:53;;;;;;;14.70;8.20;;;28.50;79.70;;;;;;4995548;28;20453;-82
2023/09/12 09:28:20;;;;;;;13.73;7.40;;;28.40;79.70;;;;;;5013830;28;20512;-81
2023/09/12 09:30:48;;;;;;;13.48;8.05;;;28.40;80.40;;;;;;5035048;28;20036;-81
2023/09/12 09:33:14;;;;;;;11.98;7.45;;;28.40;80.20;;;;;;5008964;28;20041;-79
2023/09/12 09:35:46;;;;;;;10.77;7.53;;;28.30;80.00;;;;;;5004412;28;20037;-80
2023/09/12 09:38:16;;;;;;;11.77;7.95;;;28.40;80.00;;;;;;5033475;28;20077;-80
2023/09/12 09:40:43;;;;;;;8.35;7.03;;;28.30;80.50;;;;;;5012899;28;20037;-80
2023/09/12 09:43:09;;;;;;;8.38;7.15;;;28.40;81.00;;;;;;5024384;28;20105;-80
2023/09/12 09:45:46;;;;;;;9.35;6.68;;;28.50;81.70;;;;;;5031652;28;20508;-80
2023/09/12 09:48:19;;;;;;;8.35;6.40;;;28.70;81.50;;;;;;5040110;28;20596;-80
2023/09/12 09:50:45;;;;;;;14.05;7.57;;;28.70;81.60;;;;;;5030724;28;20037;-80
2023/09/12 09:53:10;;;;;;;7.82;6.93;;;28.80;82.00;;;;;;5001209;28;20056;-79
2023/09/12 09:55:36;;;;;;;10.77;7.05;;;29.00;82.30;;;;;;5025186;28;20133;-80
2023/09/12 09:58:05;;;;;;;8.52;7.10;;;29.10;82.10;;;;;;5030694;28;20041;-80
2023/09/12 10:00:34;;;;;;;13.82;10.82;;;29.30;82.10;;;;;;5018144;28;20064;-80
2023/09/12 10:03:01;;;;;;;9.80;6.85;;;29.40;81.80;;;;;;5018361;28;20021;-80
2023/09/12 10:05:28;;;;;;;10.40;7.18;;;29.50;81.90;;;;;;5000895;28;20042;-80
2023/09/12 10:07:57;;;;;;;8.55;6.32;;;29.70;81.50;;;;;;5025559;28;20041;-80
2023/09/12 10:10:25;;;;;;;7.72;6.43;;;29.80;81.00;;;;;;5033256;28;20072;-80
2023/09/12 10:12:58;;;;;;;9.13;5.63;;;30.00;81.00;;;;;;5031635;28;20068;-80
2023/09/12 10:15:29;;;;;;;10.15;6.47;;;30.20;80.40;;;;;;5014822;28;20034;-80
2023/09/12 10:17:59;;;;;;;11.95;5.78;;;30.30;79.10;;;;;;5025308;28;20065;-80
2023/09/12 10:20:53;;;;;;;9.23;5.53;;;30.40;78.00;;;;;;5023334;28;20083;-80
2023/09/12 10:23:18;;;;;;;8.75;5.35;;;30.40;77.40;;;;;;5011405;28;20433;-80
2023/09/12 10:25:45;;;;;;;7.10;5.88;;;30.30;75.90;;;;;;5025023;28;20042;-80
2023/09/12 10:28:12;;;;;;;7.32;5.38;;;30.30;75.20;;;;;;5026028;28;20033;-80
2023/09/12 10:30:39;;;;;;;6.20;5.38;;;30.40;74.50;;;;;;5033670;28;20033;-81
2023/09/12 10:33:06;;;;;;;7.13;5.25;;;30.50;74.40;;;;;;5018090;28;20038;-80
2023/09/12 10:35:33;;;;;;;8.52;5.10;;;30.70;74.90;;;;;;5029158;28;20033;-80
2023/09/12 10:38:03;;;;;;;8.45;6.38;;;30.70;73.80;;;;;;5033495;28;20439;-80
2023/09/12 10:40:30;;;;;;;6.57;5.50;;;30.70;74.00;;;;;;5031513;28;20564;-80
2023/09/12 10:42:57;;;;;;;7.20;4.65;;;30.80;73.70;;;;;;5020337;28;20029;-81
2023/09/12 10:45:23;;;;;;;6.97;4.47;;;30.90;72.30;;;;;;5032846;28;20068;-81
2023/09/12 10:47:49;;;;;;;4.82;4.35;;;31.10;71.40;;;;;;5029604;28;20033;-81
2023/09/12 10:50:14;;;;;;;4.70;4.10;;;31.30;70.80;;;;;;5027017;28;20034;-79
2023/09/12 10:52:41;;;;;;;6.35;5.20;;;31.50;70.10;;;;;;5033486;28;20474;-80
2023/09/12 10:55:08;;;;;;;7.90;5.90;;;31.60;71.30;;;;;;5032485;28;20033;-80
2023/09/12 10:57:34;;;;;;;8.50;6.65;;;31.70;72.40;;;;;;5033273;28;20121;-80
2023/09/12 11:00:08;;;;;;;6.28;5.18;;;31.70;73.00;;;;;;5027603;28;20156;-80
2023/09/12 11:02:35;;;;;;;10.02;5.03;;;31.80;72.50;;;;;;5013674;28;20033;-81
2023/09/12 11:05:25;;;;;;;8.32;5.30;;;31.90;72.20;;;;;;5015290;28;20034;-81
2023/09/12 11:07:51;;;;;;;6.82;5.20;;;32.00;71.70;;;;;;5020312;28;20115;-80
2023/09/12 11:10:18;;;;;;;6.05;4.55;;;32.20;71.50;;;;;;5030324;28;20033;-81
2023/09/12 11:12:46;;;;;;;6.13;5.07;;;32.40;71.10;;;;;;5027185;28;20064;-81
2023/09/12 11:15:11;;;;;;;8.27;4.90;;;32.60;70.30;;;;;;5032817;28;20104;-81
2023/09/12 11:17:42;;;;;;;6.85;5.18;;;32.80;70.00;;;;;;5024486;28;20124;-81
2023/09/12 11:20:12;;;;;;;10.38;5.97;;;32.90;68.90;;;;;;5029702;28;20037;-80
2023/09/12 11:22:45;;;;;;;8.80;5.43;;;33.00;68.40;;;;;;5032792;28;20064;-81
2023/09/12 11:25:25;;;;;;;7.50;5.55;;;33.10;68.50;;;;;;5022072;28;20426;-81
2023/09/12 11:27:51;;;;;;;6.68;5.53;;;33.30;67.70;;;;;;5030483;28;20056;-81
2023/09/12 11:30:26;;;;;;;9.82;5.20;;;33.50;68.10;;;;;;5031749;28;20753;-81
2023/09/12 11:32:54;;;;;;;8.05;6.70;;;33.70;67.80;;;;;;5033141;28;20046;-81
2023/09/12 11:35:28;;;;;;;7.75;6.00;;;33.80;67.70;;;;;;5015277;28;20037;-81
2023/09/12 11:37:58;;;;;;;10.30;6.07;;;34.00;67.30;;;;;;5014269;28;20065;-82
2023/09/12 11:40:42;;;;;;;;;;;34.10;67.30;;;;;;5020994;28;20033;-81
2023/09/12 11:43:19;;;;;;;9.85;6.30;;;34.20;66.60;;;;;;5019531;28;19992;-81
2023/09/12 11:45:46;;;;;;;8.48;6.97;;;34.40;67.10;;;;;;5023630;28;20041;-82
2023/09/12 11:48:12;;;;;;;7.20;6.43;;;34.40;67.00;;;;;;5009123;28;20080;-82
2023/09/12 11:50:39;;;;;;;7.10;6.07;;;34.60;66.80;;;;;;5019881;28;20064;-81
2023/09/12 11:53:07;;;;;;;9.27;5.95;;;34.80;66.40;;;;;;5019537;28;20033;-81
2023/09/12 11:55:36;;;;;;;8.43;6.30;;;34.90;66.30;;;;;;5027535;28;20041;-81
2023/09/12 11:58:03;;;;;;;9.52;6.63;;;35.00;65.60;;;;;;5021940;28;20037;-81
2023/09/12 12:00:29;;;;;;;7.88;6.32;;;35.10;65.30;;;;;;5019912;28;20579;-81
2023/09/12 12:02:55;;;;;;;8.05;6.15;;;35.10;65.40;;;;;;5017389;28;20045;-81
2023/09/12 12:05:31;;;;;;;7.15;5.95;;;35.20;65.30;;;;;;5020837;28;20470;-81
2023/09/12 12:07:58;;;;;;;7.22;6.53;;;35.10;65.30;;;;;;5027575;28;20051;-81
2023/09/12 12:10:26;;;;;;;6.68;5.97;;;35.10;64.90;;;;;;5029180;28;20776;-81
2023/09/12 12:12:54;;;;;;;7.20;6.50;;;35.10;65.20;;;;;;5033719;28;20102;-81
2023/09/12 12:15:20;;;;;;;8.20;5.90;;;35.20;64.50;;;;;;5002186;28;20405;-81
2023/09/12 12:17:46;;;;;;;9.60;6.13;;;35.10;64.50;;;;;;5030331;28;20042;-81
2023/09/12 12:20:11;;;;;;;6.32;5.72;;;35.20;64.00;;;;;;5031336;28;20096;-81
2023/09/12 12:22:38;;;;;;;6.35;5.65;;;35.20;63.60;;;;;;5030319;28;20049;-81
2023/09/12 12:25:09;;;;;;;7.38;6.13;;;35.20;63.40;;;;;;5028107;28;20485;-81
2023/09/12 12:27:38;;;;;;;7.28;5.35;;;35.10;62.80;;;;;;5012947;28;20034;-81
2023/09/12 12:30:09;;;;;;;8.52;5.50;;;35.20;63.50;;;;;;5030451;28;20572;-81
2023/09/12 12:32:40;;;;;;;6.03;5.40;;;35.20;63.20;;;;;;5030579;28;20048;-81
2023/09/12 12:35:07;;;;;;;6.18;5.57;;;35.10;62.50;;;;;;5032272;28;20120;-81
2023/09/12 12:37:34;;;;;;;7.43;5.80;;;35.00;62.70;;;;;;5033900;28;20034;-81